createdAt,value
2022-08-20T00:01:42.862Z,24.68
2022-08-20T00:04:11.557Z,24.86
2022-08-20T00:06:40.814Z,24.54
2022-08-20T00:09:09.617Z,24.68
2022-08-20T00:11:37.916Z,24.67
2022-08-20T00:14:06.592Z,24.90
2022-08-20T00:16:36.886Z,24.74
2022-08-20T00:19:09.683Z,24.47
2022-08-20T00:21:37.889Z,24.80
2022-08-20T00:24:06.353Z,24.67
2022-08-20T00:26:34.260Z,24.69
2022-08-20T00:29:01.658Z,24.67
2022-08-20T00:31:42.663Z,24.84
2022-08-20T00:34:10.618Z,24.79
2022-08-20T00:36:44.655Z,24.76
2022-08-20T00:39:12.028Z,24.80
2022-08-20T00:41:42.957Z,25.02
2022-08-20T00:44:18.174Z,24.68
2022-08-20T00:46:46.034Z,24.37
2022-08-20T00:49:16.666Z,24.47
2022-08-20T00:51:46.729Z,24.54
2022-08-20T00:54:35.872Z,24.24
2022-08-20T00:57:11.859Z,24.40
2022-08-20T00:59:40.230Z,24.63
2022-08-20T01:02:13.107Z,24.43
2022-08-20T01:04:44.478Z,24.66
2022-08-20T01:07:12.237Z,24.46
2022-08-20T01:09:58.544Z,24.55
2022-08-20T01:12:35.802Z,24.39
2022-08-20T01:15:07.446Z,24.57
2022-08-20T01:17:36.688Z,24.33
2022-08-20T01:20:09.330Z,24.21
2022-08-20T01:23:00.484Z,24.33
2022-08-20T01:25:48.742Z,24.05
2022-08-20T01:28:19.079Z,23.81
2022-08-20T01:30:46.870Z,24.06
2022-08-20T01:33:14.392Z,24.13
2022-08-20T01:35:42.541Z,23.86
2022-08-20T01:38:09.942Z,23.91
2022-08-20T01:41:03.906Z,24.02
2022-08-20T01:43:32.235Z,23.56
2022-08-20T01:46:05.503Z,23.72
2022-08-20T01:48:33.761Z,24.05
2022-08-20T01:51:21.154Z,23.87
2022-08-20T01:53:51.617Z,23.64
2022-08-20T01:56:21.568Z,23.98
2022-08-20T01:58:56.055Z,24.04
2022-08-20T02:01:28.564Z,23.76
2022-08-20T02:03:56.712Z,23.97
2022-08-20T02:06:25.873Z,23.94
2022-08-20T02:08:54.913Z,23.98
2022-08-20T02:11:22.883Z,24.17
2022-08-20T02:13:52.691Z,24.27
2022-08-20T02:16:22.963Z,24.21
2022-08-20T02:18:51.506Z,23.80
2022-08-20T02:21:19.175Z,23.91
2022-08-20T02:23:46.638Z,24.01
2022-08-20T02:26:14.741Z,23.96
2022-08-20T02:28:42.403Z,24.08
2022-08-20T02:31:10.003Z,24.12
2022-08-20T02:33:37.814Z,24.23
2022-08-20T02:36:06.847Z,23.96
2022-08-20T02:38:35.147Z,24.00
2022-08-20T02:41:04.744Z,24.07
2022-08-20T02:43:32.620Z,24.08
2022-08-20T02:46:00.695Z,24.24
2022-08-20T02:48:31.572Z,24.11
2022-08-20T02:51:01.887Z,23.99
2022-08-20T02:53:31.633Z,24.05
2022-08-20T02:55:59.883Z,23.79
2022-08-20T02:58:27.940Z,23.93
2022-08-20T03:00:56.836Z,24.04
2022-08-20T03:03:24.998Z,23.94
2022-08-20T03:05:55.872Z,23.90
2022-08-20T03:08:24.472Z,23.96
2022-08-20T03:10:52.170Z,23.34
2022-08-20T03:13:19.849Z,23.24
2022-08-20T03:15:49.136Z,23.61
2022-08-20T03:18:19.948Z,24.07
2022-08-20T03:20:52.091Z,23.60
2022-08-20T03:23:20.821Z,23.58
2022-08-20T03:25:49.028Z,23.69
2022-08-20T03:28:17.740Z,23.68
2022-08-20T03:30:45.372Z,23.77
2022-08-20T03:33:13.333Z,23.82
2022-08-20T03:35:40.553Z,24.10
2022-08-20T03:38:09.422Z,23.65
2022-08-20T03:40:37.324Z,23.61
2022-08-20T03:43:05.576Z,23.89
2022-08-20T03:45:32.941Z,23.59
2022-08-20T03:48:01.750Z,23.92
2022-08-20T03:50:30.450Z,23.90
2022-08-20T03:52:57.904Z,24.17
2022-08-20T03:55:26.796Z,23.65
2022-08-20T03:57:55.535Z,23.74
2022-08-20T04:00:29.182Z,23.45
2022-08-20T04:02:57.377Z,23.81
2022-08-20T04:05:25.289Z,24.00
2022-08-20T04:08:00.186Z,24.05
2022-08-20T04:10:31.975Z,23.84
2022-08-20T04:12:59.692Z,23.83
2022-08-20T04:15:27.065Z,23.86
2022-08-20T04:17:56.860Z,24.03
2022-08-20T04:20:26.212Z,23.60
2022-08-20T04:22:59.391Z,23.37
2022-08-20T04:25:29.569Z,23.51
2022-08-20T04:28:00.780Z,23.56
2022-08-20T04:30:29.530Z,23.51
2022-08-20T04:32:57.112Z,23.67
2022-08-20T04:35:25.296Z,23.88
2022-08-20T04:38:14.710Z,23.75
2022-08-20T04:40:55.701Z,23.94
2022-08-20T04:43:28.788Z,24.05
2022-08-20T04:45:58.577Z,24.05
2022-08-20T04:48:28.805Z,24.17
2022-08-20T04:51:00.534Z,24.14
2022-08-20T04:53:30.801Z,24.11
2022-08-20T04:55:58.853Z,24.07
2022-08-20T04:58:28.334Z,23.92
2022-08-20T05:00:57.137Z,23.92
2022-08-20T05:03:30.163Z,23.95
2022-08-20T05:06:05.597Z,24.07
2022-08-20T05:08:33.853Z,24.13
2022-08-20T05:11:24.140Z,24.33
2022-08-20T05:13:52.921Z,24.36
2022-08-20T05:16:24.846Z,24.54
2022-08-20T05:18:53.984Z,24.64
2022-08-20T05:21:21.938Z,24.57
2022-08-20T05:23:51.751Z,24.79
2022-08-20T05:26:29.638Z,24.60
2022-08-20T05:28:59.389Z,24.74
2022-08-20T05:31:32.066Z,25.00
2022-08-20T05:34:02.430Z,25.10
2022-08-20T05:36:30.260Z,25.09
2022-08-20T05:38:57.767Z,25.20
2022-08-20T05:41:29.525Z,25.16
2022-08-20T05:44:00.728Z,25.12
2022-08-20T05:46:29.322Z,25.11
2022-08-20T05:48:59.678Z,25.41
2022-08-20T05:51:37.754Z,25.37
2022-08-20T05:54:08.688Z,25.34
2022-08-20T05:56:40.788Z,25.46
2022-08-20T05:59:12.672Z,25.34
2022-08-20T06:01:44.972Z,25.54
2022-08-20T06:04:32.042Z,25.26
2022-08-20T06:07:04.167Z,25.17
2022-08-20T06:09:33.409Z,25.37
2022-08-20T06:12:03.645Z,24.56
2022-08-20T06:14:32.417Z,24.52
2022-08-20T06:17:07.613Z,25.17
2022-08-20T06:19:36.443Z,24.66
2022-08-20T06:22:18.079Z,24.39
2022-08-20T06:24:54.672Z,24.93
2022-08-20T06:27:26.648Z,25.11
2022-08-20T06:29:54.349Z,25.23
2022-08-20T06:32:32.126Z,25.37
2022-08-20T06:35:03.691Z,25.09
2022-08-20T06:37:36.590Z,25.19
2022-08-20T06:40:08.211Z,25.25
2022-08-20T06:42:48.598Z,25.37
2022-08-20T06:45:19.673Z,25.33
2022-08-20T06:47:48.705Z,24.74
2022-08-20T06:50:23.560Z,24.92
2022-08-20T06:53:04.087Z,24.99
2022-08-20T06:55:33.222Z,25.26
2022-08-20T06:58:06.787Z,25.29
2022-08-20T07:00:55.319Z,25.22
2022-08-20T07:03:28.661Z,25.40
2022-08-20T07:05:59.461Z,25.31
2022-08-20T07:08:28.124Z,24.93
2022-08-20T07:16:15.873Z,25.07
2022-08-20T07:18:47.904Z,25.04
2022-08-20T07:21:17.643Z,25.11
2022-08-20T07:23:46.625Z,25.04
2022-08-20T07:26:17.302Z,25.04
2022-08-20T07:28:48.932Z,24.97
2022-08-20T07:31:39.894Z,24.92
2022-08-20T07:34:15.699Z,25.16
2022-08-20T07:36:48.732Z,25.06
2022-08-20T07:39:21.666Z,25.22
2022-08-20T07:42:03.367Z,25.09
2022-08-20T07:44:38.761Z,25.19
2022-08-20T07:47:07.761Z,24.98
2022-08-20T07:52:23.910Z,24.99
2022-08-20T07:54:55.101Z,24.72
2022-08-20T07:57:22.733Z,24.87
2022-08-20T07:59:50.789Z,24.14
2022-08-20T08:02:22.703Z,23.99
2022-08-20T08:07:33.674Z,23.79
2022-08-20T08:10:08.815Z,24.33
2022-08-20T08:12:44.898Z,24.26
2022-08-20T08:17:56.008Z,24.07
2022-08-20T08:20:31.650Z,23.96
2022-08-20T08:23:00.833Z,23.94
2022-08-20T08:25:30.140Z,23.90
2022-08-20T08:28:00.563Z,23.72
2022-08-20T08:30:31.765Z,23.79
2022-08-20T08:33:28.353Z,23.75
2022-08-20T08:35:56.969Z,24.26
2022-08-20T08:41:17.245Z,23.93
2022-08-20T08:43:59.700Z,23.74
2022-08-20T08:46:31.701Z,23.95
2022-08-20T08:49:01.613Z,23.87
2022-08-20T08:51:36.359Z,23.92
2022-08-20T08:54:07.074Z,24.16
2022-08-20T08:59:15.750Z,23.73
2022-08-20T09:01:57.148Z,23.59
2022-08-20T09:04:49.701Z,23.53
2022-08-20T09:07:20.803Z,23.74
2022-08-20T09:09:50.760Z,23.75
2022-08-20T09:15:09.421Z,23.58
2022-08-20T09:17:52.450Z,23.75
2022-08-20T09:20:35.235Z,23.95
2022-08-20T09:23:13.878Z,23.69
2022-08-20T09:25:48.695Z,23.38
2022-08-20T09:28:21.994Z,23.67
2022-08-20T09:31:05.554Z,23.44
2022-08-20T09:33:37.875Z,23.49
2022-08-20T09:36:31.782Z,23.47
2022-08-20T09:39:02.651Z,23.27
2022-08-20T09:41:33.783Z,23.19
2022-08-20T09:44:05.644Z,23.24
2022-08-20T09:46:39.772Z,23.20
2022-08-20T09:49:11.974Z,23.21
2022-08-20T09:51:41.069Z,23.06
2022-08-20T09:54:09.989Z,22.91
2022-08-20T09:56:38.850Z,22.79
2022-08-20T09:59:09.702Z,22.74
2022-08-20T10:01:42.888Z,22.71
2022-08-20T10:04:12.918Z,22.67
2022-08-20T10:06:44.115Z,22.47
2022-08-20T10:09:18.003Z,22.44
2022-08-20T10:11:58.780Z,22.96
2022-08-20T10:14:29.770Z,23.13
2022-08-20T10:16:59.836Z,23.08
2022-08-20T10:19:33.969Z,23.03
2022-08-20T10:22:07.748Z,23.30
2022-08-20T10:27:15.034Z,23.44
2022-08-20T10:29:49.859Z,23.27
2022-08-20T10:32:18.138Z,23.80
2022-08-20T10:34:50.760Z,23.95
2022-08-20T10:37:23.521Z,23.91
2022-08-20T10:39:56.855Z,23.94
2022-08-20T10:42:25.070Z,24.27
2022-08-20T10:44:59.717Z,24.39
2022-08-20T10:47:29.617Z,24.28
2022-08-20T10:50:05.237Z,24.90
2022-08-20T10:52:33.728Z,24.86
2022-08-20T10:55:04.911Z,24.88
2022-08-20T10:57:40.684Z,25.14
2022-08-20T11:00:17.643Z,25.02
2022-08-20T11:02:50.192Z,25.17
2022-08-20T11:05:25.670Z,25.43
2022-08-20T11:07:59.948Z,25.42
2022-08-20T11:10:34.983Z,25.50
2022-08-20T11:13:05.040Z,25.81
2022-08-20T11:15:33.342Z,25.66
2022-08-20T11:18:01.824Z,25.56
2022-08-20T11:20:32.170Z,25.70
2022-08-20T11:23:02.719Z,25.58
2022-08-20T11:25:38.112Z,26.15
2022-08-20T11:28:15.865Z,26.27
2022-08-20T11:30:46.797Z,26.42
2022-08-20T11:33:15.711Z,26.58
2022-08-20T11:35:50.777Z,26.47
2022-08-20T11:38:23.908Z,26.58
2022-08-20T11:40:52.223Z,26.52
2022-08-20T11:43:26.699Z,26.47
2022-08-20T11:46:06.091Z,26.44
2022-08-20T11:48:38.719Z,26.37
2022-08-20T11:51:16.923Z,26.40
2022-08-20T11:53:47.249Z,26.11
2022-08-20T11:56:21.779Z,26.20
2022-08-20T11:58:57.045Z,26.41
2022-08-20T12:01:31.965Z,26.29
2022-08-20T12:06:38.066Z,26.20
2022-08-20T12:09:13.945Z,26.36
2022-08-20T12:11:46.815Z,26.22
2022-08-20T12:14:27.987Z,26.15
2022-08-20T12:17:09.898Z,25.97
2022-08-20T12:19:41.710Z,26.33
2022-08-20T12:22:24.682Z,26.45
2022-08-20T12:25:04.825Z,26.37
2022-08-20T12:27:40.020Z,26.30
2022-08-20T12:30:14.799Z,26.34
2022-08-20T12:32:56.776Z,26.37
2022-08-20T12:35:32.090Z,26.38
2022-08-20T12:38:10.794Z,26.36
2022-08-20T12:43:25.352Z,26.62
2022-08-20T12:45:58.131Z,26.46
2022-08-20T12:48:32.096Z,26.50
2022-08-20T12:51:02.377Z,26.48
2022-08-20T12:53:36.319Z,26.51
2022-08-20T12:56:10.824Z,26.42
2022-08-20T12:58:47.054Z,26.48
2022-08-20T13:04:52.599Z,26.71
2022-08-20T13:07:20.245Z,26.46
2022-08-20T13:09:47.553Z,26.59
2022-08-20T13:12:14.848Z,26.77
2022-08-20T13:14:42.999Z,26.91
2022-08-20T13:17:10.489Z,27.04
2022-08-20T13:19:40.018Z,26.99
2022-08-20T13:22:07.657Z,26.99
2022-08-20T13:24:35.272Z,26.92
2022-08-20T13:27:09.890Z,27.13
2022-08-20T13:29:37.565Z,27.08
2022-08-20T13:32:05.484Z,27.15
2022-08-20T13:34:32.686Z,27.31
2022-08-20T13:37:00.282Z,27.28
2022-08-20T13:39:27.595Z,27.48
2022-08-20T13:41:54.801Z,27.50
2022-08-20T13:44:32.737Z,26.99
2022-08-20T13:47:01.055Z,27.30
2022-08-20T13:49:30.368Z,26.94
2022-08-20T13:52:01.186Z,26.69
2022-08-20T13:54:30.391Z,26.95
2022-08-20T13:57:08.579Z,26.80
2022-08-20T13:59:37.150Z,26.94
2022-08-20T14:02:07.300Z,26.86
2022-08-20T14:04:35.337Z,27.04
2022-08-20T14:07:09.847Z,27.22
2022-08-20T14:09:38.826Z,27.20
2022-08-20T14:12:06.450Z,27.09
2022-08-20T14:14:33.819Z,27.05
2022-08-20T14:17:13.383Z,26.94
2022-08-20T14:19:42.314Z,26.48
2022-08-20T14:22:09.916Z,26.60
2022-08-20T14:24:37.415Z,26.78
2022-08-20T14:27:05.755Z,26.79
2022-08-20T14:29:36.673Z,26.91
2022-08-20T14:32:04.735Z,26.86
2022-08-20T14:34:32.156Z,26.99
2022-08-20T14:37:10.127Z,26.97
2022-08-20T14:39:37.609Z,26.88
2022-08-20T14:42:05.398Z,26.66
2022-08-20T14:44:32.662Z,26.96
2022-08-20T14:47:18.387Z,26.89
2022-08-20T14:49:46.559Z,26.87
2022-08-20T14:52:14.341Z,26.79
2022-08-20T14:54:41.714Z,26.84
2022-08-20T14:57:12.976Z,26.84
2022-08-20T14:59:41.035Z,26.66
2022-08-20T15:02:09.318Z,26.81
2022-08-20T15:04:36.703Z,26.94
2022-08-20T15:07:08.015Z,26.88
2022-08-20T15:09:38.486Z,27.01
2022-08-20T15:12:06.010Z,27.22
2022-08-20T15:14:33.307Z,27.18
2022-08-20T15:17:01.201Z,27.40
2022-08-20T15:19:28.910Z,27.46
2022-08-20T15:21:56.142Z,27.22
2022-08-20T15:24:23.719Z,26.93
2022-08-20T15:26:50.983Z,27.07
2022-08-20T15:29:22.949Z,26.91
2022-08-20T15:31:51.364Z,26.95
2022-08-20T15:34:18.691Z,26.85
2022-08-20T15:36:46.017Z,26.94
2022-08-20T15:39:13.624Z,27.13
2022-08-20T15:41:40.920Z,27.20
2022-08-20T15:44:08.310Z,27.37
2022-08-20T15:46:36.227Z,27.34
2022-08-20T15:49:04.907Z,27.12
2022-08-20T15:51:33.502Z,26.93
2022-08-20T15:54:01.119Z,26.92
2022-08-20T15:56:31.477Z,26.69
2022-08-20T15:59:17.696Z,26.71
2022-08-20T16:01:53.111Z,26.43
2022-08-20T16:04:23.887Z,26.08
2022-08-20T16:06:51.532Z,26.47
2022-08-20T16:09:18.767Z,26.49
2022-08-20T16:11:46.319Z,26.35
2022-08-20T16:14:23.444Z,26.48
2022-08-20T16:17:11.306Z,26.46
2022-08-20T16:19:44.740Z,26.51
2022-08-20T16:22:13.544Z,26.32
2022-08-20T16:24:40.815Z,26.38
2022-08-20T16:27:17.479Z,26.20
2022-08-20T16:30:04.396Z,26.28
2022-08-20T16:32:33.260Z,26.09
2022-08-20T16:35:03.904Z,26.38
2022-08-20T16:37:50.103Z,26.54
2022-08-20T16:40:23.891Z,26.64
2022-08-20T16:42:51.880Z,26.22
2022-08-20T16:45:20.992Z,26.37
2022-08-20T16:47:48.643Z,26.53
2022-08-20T16:50:19.963Z,26.58
2022-08-20T16:52:48.114Z,26.65
2022-08-20T16:55:15.318Z,26.70
2022-08-20T16:57:42.960Z,26.69
2022-08-20T17:00:20.057Z,26.45
2022-08-20T17:02:55.503Z,26.50
2022-08-20T17:05:24.181Z,26.43
2022-08-20T17:07:53.097Z,26.16
2022-08-20T17:10:24.800Z,25.96
2022-08-20T17:12:53.927Z,25.81
2022-08-20T17:15:22.785Z,26.01
2022-08-20T17:17:50.253Z,26.20
2022-08-20T17:20:20.325Z,26.25
2022-08-20T17:23:08.179Z,26.01
2022-08-20T17:25:38.404Z,25.91
2022-08-20T17:28:15.954Z,25.84
2022-08-20T17:30:44.116Z,25.73
2022-08-20T17:33:35.070Z,25.52
2022-08-20T17:36:06.667Z,25.73
2022-08-20T17:38:35.370Z,25.70
2022-08-20T17:41:08.502Z,25.76
2022-08-20T17:43:35.960Z,25.67
2022-08-20T17:46:12.394Z,25.80
2022-08-20T17:48:43.786Z,25.87
2022-08-20T17:51:21.780Z,25.86
2022-08-20T17:53:53.521Z,25.73
2022-08-20T17:56:26.533Z,25.74
2022-08-20T17:58:56.523Z,25.69
2022-08-20T18:01:26.099Z,25.53
2022-08-20T18:03:53.790Z,25.52
2022-08-20T18:06:30.943Z,25.58
2022-08-20T18:09:33.538Z,25.42
2022-08-20T18:12:33.346Z,25.35
2022-08-20T18:15:23.657Z,25.13
2022-08-20T18:18:07.104Z,25.16
2022-08-20T18:20:40.143Z,25.28
2022-08-20T18:23:10.636Z,25.25
2022-08-20T18:25:42.863Z,25.25
2022-08-20T18:28:18.709Z,25.34
2022-08-20T18:30:49.340Z,25.19
2022-08-20T18:33:25.289Z,25.10
2022-08-20T18:36:02.505Z,25.05
2022-08-20T18:38:30.411Z,24.73
2022-08-20T18:41:07.891Z,24.77
2022-08-20T18:43:35.824Z,24.82
2022-08-20T18:46:12.678Z,24.84
2022-08-20T18:48:49.980Z,24.81
2022-08-20T18:51:17.575Z,24.80
2022-08-20T18:53:47.342Z,24.74
2022-08-20T18:56:29.488Z,24.74
2022-08-20T18:59:02.899Z,24.69
2022-08-20T19:01:30.772Z,24.75
2022-08-20T19:03:58.300Z,24.69
2022-08-20T19:06:36.022Z,24.65
2022-08-20T19:09:22.499Z,24.68
2022-08-20T19:11:56.117Z,24.48
2022-08-20T19:14:26.826Z,24.40
2022-08-20T19:17:13.642Z,24.35
2022-08-20T19:19:41.341Z,24.33
2022-08-20T19:22:08.645Z,24.46
2022-08-20T19:24:37.899Z,24.38
2022-08-20T19:27:08.371Z,24.18
2022-08-20T19:29:49.348Z,24.33
2022-08-20T19:32:18.766Z,24.40
2022-08-20T19:34:52.191Z,24.25
2022-08-20T19:37:35.172Z,24.06
2022-08-20T19:40:08.818Z,24.17
2022-08-20T19:42:41.213Z,24.28
2022-08-20T19:45:10.078Z,24.26
2022-08-20T19:47:38.611Z,24.48
2022-08-20T19:50:24.782Z,24.31
2022-08-20T19:52:55.613Z,24.24
2022-08-20T19:55:24.922Z,24.32
2022-08-20T19:57:54.736Z,24.39
2022-08-20T20:00:22.664Z,24.45
2022-08-20T20:02:50.422Z,24.49
2022-08-20T20:05:17.847Z,24.64
2022-08-20T20:07:49.970Z,24.47
2022-08-20T20:10:32.974Z,24.42
2022-08-20T20:13:12.359Z,24.10
2022-08-20T20:15:40.733Z,24.41
2022-08-20T20:18:08.131Z,24.22
2022-08-20T20:20:38.554Z,24.13
2022-08-20T20:23:41.664Z,24.30
2022-08-20T20:26:16.616Z,24.17
2022-08-20T20:28:45.931Z,23.89
2022-08-20T20:31:17.663Z,24.03
2022-08-20T20:33:45.620Z,24.33
2022-08-20T20:36:17.190Z,24.15
2022-08-20T20:38:52.870Z,23.97
2022-08-20T20:41:24.427Z,23.82
2022-08-20T20:44:16.836Z,23.84
2022-08-20T20:46:44.914Z,23.71
2022-08-20T20:49:23.955Z,23.64
2022-08-20T20:51:59.631Z,23.88
2022-08-20T20:54:27.142Z,23.78
2022-08-20T20:56:59.998Z,23.66
2022-08-20T20:59:27.744Z,23.73
2022-08-20T21:01:55.055Z,23.33
2022-08-20T21:04:23.154Z,23.36
2022-08-20T21:06:52.187Z,23.43
2022-08-20T21:09:20.354Z,23.12
2022-08-20T21:11:47.873Z,23.02
2022-08-20T21:14:16.043Z,23.07
2022-08-20T21:16:44.430Z,22.99
2022-08-20T21:19:11.711Z,22.97
2022-08-20T21:21:39.502Z,23.06
2022-08-20T21:24:07.272Z,22.98
2022-08-20T21:26:34.944Z,23.15
2022-08-20T21:29:04.303Z,23.06
2022-08-20T21:31:33.838Z,23.30
2022-08-20T21:34:01.269Z,23.00
2022-08-20T21:36:28.864Z,22.87
2022-08-20T21:38:56.289Z,23.14
2022-08-20T21:41:30.051Z,23.23
2022-08-20T21:43:59.403Z,23.14
2022-08-20T21:46:28.706Z,22.89
2022-08-20T21:48:56.319Z,22.84
2022-08-20T21:51:24.032Z,22.72
2022-08-20T21:53:51.811Z,23.08
2022-08-20T21:56:19.196Z,23.28
2022-08-20T21:58:47.578Z,22.93
2022-08-20T22:01:15.489Z,23.29
2022-08-20T22:03:43.289Z,23.11
2022-08-20T22:06:11.884Z,23.03
2022-08-20T22:08:39.194Z,23.14
2022-08-20T22:11:07.683Z,23.24
2022-08-20T22:13:35.107Z,23.55
2022-08-20T22:16:03.560Z,23.19
2022-08-20T22:18:31.353Z,23.10
2022-08-20T22:20:59.210Z,23.13
2022-08-20T22:23:26.682Z,23.29
2022-08-20T22:25:54.662Z,23.30
2022-08-20T22:28:22.114Z,23.32
2022-08-20T22:30:49.520Z,22.98
2022-08-20T22:33:18.956Z,23.22
2022-08-20T22:35:49.131Z,22.78
2022-08-20T22:38:16.697Z,22.77
2022-08-20T22:40:43.995Z,22.91
2022-08-20T22:43:11.698Z,22.96
2022-08-20T22:45:39.655Z,22.86
2022-08-20T22:48:07.112Z,23.21
2022-08-20T22:50:36.107Z,23.18
2022-08-20T22:53:04.105Z,23.04
2022-08-20T22:55:31.401Z,23.01
2022-08-20T22:57:59.236Z,22.88
2022-08-20T23:00:28.566Z,22.88
2022-08-20T23:02:56.707Z,22.80
2022-08-20T23:05:25.521Z,22.86
2022-08-20T23:07:54.524Z,22.53
2022-08-20T23:10:22.411Z,22.72
2022-08-20T23:12:49.738Z,22.61
2022-08-20T23:15:17.374Z,22.51
2022-08-20T23:17:44.641Z,22.68
2022-08-20T23:20:14.568Z,22.58
2022-08-20T23:22:42.107Z,22.71
2022-08-20T23:25:09.805Z,22.77
2022-08-20T23:27:42.059Z,22.51
2022-08-20T23:30:10.206Z,22.80
2022-08-20T23:32:37.573Z,22.63
2022-08-20T23:35:05.285Z,22.83
2022-08-20T23:37:34.106Z,22.70
2022-08-20T23:40:01.445Z,22.78
2022-08-20T23:42:28.924Z,22.97
2022-08-20T23:44:58.427Z,22.78
2022-08-20T23:47:25.806Z,22.75
2022-08-20T23:49:53.062Z,22.36
2022-08-20T23:52:20.616Z,22.61
2022-08-20T23:54:47.955Z,22.49
2022-08-20T23:57:15.310Z,22.53
2022-08-20T23:59:49.178Z,22.55
